createdAt,value
2022-11-17T06:00:15.590Z,95256.78
2022-11-17T06:02:25.641Z,95262.38
2022-11-17T06:04:28.523Z,95262.31
2022-11-17T06:06:31.626Z,95278.69
2022-11-17T06:08:34.438Z,95290.53
2022-11-17T06:10:37.381Z,95278.66
2022-11-17T06:12:40.187Z,95280.31
2022-11-17T06:14:42.996Z,95274.00
2022-11-17T06:16:49.189Z,95279.63
2022-11-17T06:18:57.566Z,95274.88
2022-11-17T06:21:00.444Z,95266.94
2022-11-17T06:23:06.949Z,95294.38
2022-11-17T06:25:11.053Z,95296.25
2022-11-17T06:27:16.506Z,95297.09
2022-11-17T06:29:20.861Z,95298.41
2022-11-17T06:31:24.541Z,95303.22
2022-11-17T06:33:32.179Z,95317.63
2022-11-17T06:35:36.142Z,95324.28
2022-11-17T06:37:38.862Z,95332.28
2022-11-17T06:39:41.581Z,95329.88
2022-11-17T06:41:44.296Z,95338.41
2022-11-17T06:43:47.092Z,95345.88
2022-11-17T06:45:50.002Z,95354.16
2022-11-17T06:47:54.217Z,95345.91
2022-11-17T06:49:58.454Z,95351.25
2022-11-17T06:52:01.234Z,95354.44
2022-11-17T06:54:05.355Z,95361.38
2022-11-17T06:56:10.176Z,95366.19
2022-11-17T06:58:14.452Z,95357.16
2022-11-17T07:00:18.141Z,95354.75
2022-11-17T07:02:20.965Z,95354.25
2022-11-17T07:04:23.852Z,95368.59
2022-11-17T07:06:27.920Z,95357.94
2022-11-17T07:08:31.511Z,95357.16
2022-11-17T07:10:35.420Z,95363.03
2022-11-17T07:12:38.344Z,95369.72
2022-11-17T07:14:41.152Z,95371.31
2022-11-17T07:16:44.413Z,95377.72
2022-11-17T07:18:47.466Z,95374.50
2022-11-17T07:20:50.279Z,95379.03
2022-11-17T07:23:00.058Z,95384.91
2022-11-17T07:25:02.904Z,95393.16
2022-11-17T07:27:06.618Z,95389.47
2022-11-17T07:29:09.380Z,95380.41
2022-11-17T07:31:12.253Z,95382.81
2022-11-17T07:33:15.385Z,95388.16
2022-11-17T07:35:19.485Z,95388.94
2022-11-17T07:37:24.738Z,95385.47
2022-11-17T07:39:29.158Z,95382.28
2022-11-17T07:41:32.055Z,95386.53
2022-11-17T07:43:35.948Z,95383.88
2022-11-17T07:45:39.104Z,95380.16
2022-11-17T07:47:41.889Z,95382.81
2022-11-17T07:49:44.893Z,95375.88
2022-11-17T07:51:47.745Z,95379.63
2022-11-17T07:53:50.523Z,95383.63
2022-11-17T07:55:54.816Z,95379.09
2022-11-17T07:57:58.812Z,95376.69
2022-11-17T08:00:01.613Z,95379.91
2022-11-17T08:02:04.605Z,95381.22
2022-11-17T08:04:07.621Z,95372.44
2022-11-17T08:06:10.947Z,95378.84
2022-11-17T08:08:14.225Z,95382.06
2022-11-17T08:10:17.258Z,95381.53
2022-11-17T08:12:21.433Z,95390.06
2022-11-17T08:14:24.261Z,95394.06
2022-11-17T08:16:30.861Z,95385.00
2022-11-17T08:18:34.081Z,95386.88
2022-11-17T08:20:37.865Z,95388.47
2022-11-17T08:22:40.756Z,95395.16
2022-11-17T08:24:43.543Z,95383.44
2022-11-17T08:26:46.878Z,95378.91
2022-11-17T08:28:56.724Z,95381.56
2022-11-17T08:31:01.728Z,95388.50
2022-11-17T08:33:05.010Z,95387.72
2022-11-17T08:35:08.378Z,95386.66
2022-11-17T08:37:11.353Z,95383.97
2022-11-17T08:39:15.589Z,95381.31
2022-11-17T08:41:18.771Z,95379.44
2022-11-17T08:43:21.392Z,95364.25
2022-11-17T08:45:25.684Z,95375.72
2022-11-17T08:47:28.482Z,95375.97
2022-11-17T08:49:31.302Z,95375.72
2022-11-17T08:51:34.653Z,95385.03
2022-11-17T08:53:37.518Z,95388.25
2022-11-17T08:55:41.405Z,95391.75
2022-11-17T08:57:44.834Z,95390.41
2022-11-17T08:59:47.660Z,95389.34
2022-11-17T09:01:51.804Z,95398.69
2022-11-17T09:03:57.305Z,95388.81
2022-11-17T09:06:00.163Z,95396.00
2022-11-17T09:08:22.890Z,95396.81
2022-11-17T09:10:26.221Z,95383.47
2022-11-17T09:12:30.284Z,95376.28
2022-11-17T09:14:33.150Z,95377.88
2022-11-17T09:16:36.300Z,95396.84
2022-11-17T09:18:41.779Z,95401.91
2022-11-17T09:20:46.019Z,95400.03
2022-11-17T09:22:49.031Z,95388.28
2022-11-17T09:24:52.079Z,95397.34
2022-11-17T09:26:57.336Z,95403.47
2022-11-17T09:29:02.424Z,95399.22
2022-11-17T09:31:09.325Z,95406.69
2022-11-17T09:33:12.543Z,95408.00
2022-11-17T09:35:17.174Z,95417.06
2022-11-17T09:37:20.875Z,95416.28
2022-11-17T09:39:26.384Z,95420.28
2022-11-17T09:41:35.283Z,95414.16
2022-11-17T09:43:39.643Z,95404.28
2022-11-17T09:45:47.288Z,95405.88
2022-11-17T09:48:12.475Z,95412.84
2022-11-17T09:50:27.139Z,95409.09
2022-11-17T09:52:36.176Z,95406.72
2022-11-17T09:54:44.792Z,95414.19
2022-11-17T09:56:49.332Z,95403.00
2022-11-17T09:58:57.502Z,95393.69
2022-11-17T10:01:00.628Z,95384.34
2022-11-17T10:03:03.736Z,95383.00
2022-11-17T10:05:10.566Z,95380.88
2022-11-17T10:07:15.095Z,95381.44
2022-11-17T10:09:25.901Z,95386.50
2022-11-17T10:11:34.059Z,95382.75
2022-11-17T10:13:37.997Z,95383.56
2022-11-17T10:15:46.932Z,95365.97
2022-11-17T10:17:59.137Z,95370.22
2022-11-17T10:20:02.060Z,95361.94
2022-11-17T10:22:33.526Z,95363.81
2022-11-17T10:24:38.898Z,95359.28
2022-11-17T10:26:51.429Z,95358.22
2022-11-17T10:29:09.802Z,95349.97
2022-11-17T10:31:15.396Z,95348.38
2022-11-17T10:33:19.804Z,95349.97
2022-11-17T10:35:24.901Z,95348.09
2022-11-17T10:37:31.774Z,95344.09
2022-11-17T10:39:37.673Z,95345.19
2022-11-17T10:41:43.798Z,95334.25
2022-11-17T10:43:57.615Z,95333.72
2022-11-17T10:46:05.208Z,95336.91
2022-11-17T10:48:22.448Z,95322.78
2022-11-17T10:50:27.524Z,95324.94
2022-11-17T10:52:31.715Z,95319.06
2022-11-17T10:54:34.470Z,95319.06
2022-11-17T10:56:42.927Z,95321.97
2022-11-17T10:59:02.960Z,95337.19
2022-11-17T11:01:06.143Z,95326.53
2022-11-17T11:03:18.488Z,95318.25
2022-11-17T11:05:21.513Z,95324.66
2022-11-17T11:07:25.062Z,95335.31
2022-11-17T11:09:31.068Z,95328.38
2022-11-17T11:11:42.345Z,95322.78
2022-11-17T11:13:53.871Z,95324.91
2022-11-17T11:15:56.901Z,95326.47
2022-11-17T11:17:59.837Z,95339.56
2022-11-17T11:20:02.923Z,95347.56
2022-11-17T11:22:28.485Z,95340.38
2022-11-17T11:24:40.097Z,95327.53
2022-11-17T11:26:52.276Z,95322.47
2022-11-17T11:29:06.063Z,95316.06
2022-11-17T11:31:20.415Z,95305.13
2022-11-17T11:33:33.199Z,95299.53
2022-11-17T11:35:52.743Z,95295.03
2022-11-17T11:38:04.235Z,95292.63
2022-11-17T11:40:16.386Z,95282.75
2022-11-17T11:42:37.238Z,95269.66
2022-11-17T11:45:08.418Z,95264.59
2022-11-17T11:47:24.609Z,95265.13
2022-11-17T11:49:36.038Z,95263.53
2022-11-17T11:51:40.039Z,95256.06
2022-11-17T11:53:49.562Z,95261.38
2022-11-17T11:56:03.069Z,95256.06
2022-11-17T11:58:14.827Z,95255.00
2022-11-17T12:00:19.318Z,95263.81
2022-11-17T12:02:32.270Z,95263.81
2022-11-17T12:04:41.317Z,95268.06
2022-11-17T12:06:53.876Z,95268.88
2022-11-17T12:09:07.362Z,95266.22
2022-11-17T12:11:29.266Z,95263.00
2022-11-17T12:13:32.305Z,95268.84
2022-11-17T12:15:37.596Z,95270.47
2022-11-17T12:17:58.348Z,95261.66
2022-11-17T12:20:07.618Z,95276.88
2022-11-17T12:22:21.626Z,95268.63
2022-11-17T12:24:34.539Z,95270.47
2022-11-17T12:26:39.134Z,95281.41
2022-11-17T12:28:42.846Z,95290.47
2022-11-17T12:30:56.968Z,95296.34
2022-11-17T12:33:01.312Z,95317.69
2022-11-17T12:35:25.188Z,95330.50
2022-11-17T12:37:28.400Z,95334.22
2022-11-17T12:39:56.715Z,95309.41
2022-11-17T12:42:07.928Z,95303.00
2022-11-17T12:44:44.979Z,95289.94
2022-11-17T12:46:50.568Z,95286.47
2022-11-17T12:48:59.540Z,95267.00
2022-11-17T12:51:07.704Z,95280.63
2022-11-17T12:53:30.142Z,95295.56
2022-11-17T12:55:53.579Z,95296.09
2022-11-17T12:58:10.824Z,95315.28
2022-11-17T13:00:20.969Z,95309.94
2022-11-17T13:02:56.450Z,95299.53
2022-11-17T13:05:04.825Z,95292.34
2022-11-17T13:07:09.510Z,95297.41
2022-11-17T13:09:13.555Z,95293.97
2022-11-17T13:11:17.662Z,95290.50
2022-11-17T13:13:23.492Z,95286.22
2022-11-17T13:15:26.403Z,95286.50
2022-11-17T13:17:31.961Z,95273.16
2022-11-17T13:19:37.106Z,95278.50
2022-11-17T13:21:39.926Z,95269.41
2022-11-17T13:23:45.531Z,95287.56
2022-11-17T13:25:48.501Z,95282.75
2022-11-17T13:27:57.112Z,95273.66
2022-11-17T13:30:25.155Z,95279.53
2022-11-17T13:32:28.738Z,95279.00
2022-11-17T13:34:31.961Z,95276.63
2022-11-17T13:36:35.276Z,95276.34
2022-11-17T13:38:38.091Z,95266.47
2022-11-17T13:40:43.382Z,95267.25
2022-11-17T13:42:46.692Z,95269.66
2022-11-17T13:44:49.883Z,95264.06
2022-11-17T13:46:56.575Z,95264.31
2022-11-17T13:48:59.440Z,95264.03
2022-11-17T13:51:23.809Z,95264.31
2022-11-17T13:53:27.856Z,95251.72
2022-11-17T13:55:31.265Z,95257.06
2022-11-17T13:57:34.206Z,95259.19
2022-11-17T13:59:40.085Z,95243.97
2022-11-17T14:01:44.168Z,95241.28
2022-11-17T14:03:48.536Z,95237.56
2022-11-17T14:05:56.867Z,95238.34
2022-11-17T14:08:12.032Z,95231.41
2022-11-17T14:10:24.513Z,95225.00
2022-11-17T14:12:27.444Z,95229.53
2022-11-17T14:14:35.374Z,95222.31
2022-11-17T14:16:40.406Z,95218.06
2022-11-17T14:18:43.516Z,95214.59
2022-11-17T14:20:47.831Z,95205.22
2022-11-17T14:23:04.703Z,95201.50
2022-11-17T14:25:08.159Z,95186.25
2022-11-17T14:27:15.266Z,95184.94
2022-11-17T14:29:19.582Z,95190.81
2022-11-17T14:31:22.546Z,95192.41
2022-11-17T14:33:25.922Z,95178.75
2022-11-17T14:35:29.226Z,95181.97
2022-11-17T14:37:33.933Z,95178.50
2022-11-17T14:39:38.252Z,95173.94
2022-11-17T14:41:41.744Z,95169.69
2022-11-17T14:43:44.828Z,95169.69
2022-11-17T14:45:48.439Z,95164.63
2022-11-17T14:47:51.353Z,95169.16
2022-11-17T14:49:54.449Z,95163.81
2022-11-17T14:51:59.076Z,95161.44
2022-11-17T14:54:08.447Z,95150.75
2022-11-17T14:56:13.747Z,95153.13
2022-11-17T14:58:16.981Z,95150.19
2022-11-17T15:00:21.021Z,95143.53
2022-11-17T15:02:24.273Z,95140.84
2022-11-17T15:04:49.551Z,95128.59
2022-11-17T15:06:49.794Z,95117.09
2022-11-17T15:08:57.078Z,95112.84
2022-11-17T15:11:01.215Z,95113.91
2022-11-17T15:13:04.195Z,95113.13
2022-11-17T15:15:07.986Z,95113.13
2022-11-17T15:17:14.464Z,95106.16
2022-11-17T15:19:17.781Z,95098.16
2022-11-17T15:21:20.560Z,95093.09
2022-11-17T15:23:23.366Z,95088.81
2022-11-17T15:25:26.279Z,95078.94
2022-11-17T15:27:31.680Z,95078.13
2022-11-17T15:29:34.402Z,95078.13
2022-11-17T15:31:37.191Z,95073.88
2022-11-17T15:33:43.774Z,95069.63
2022-11-17T15:35:46.655Z,95070.41
2022-11-17T15:37:49.567Z,95069.63
2022-11-17T15:39:52.637Z,95074.44
2022-11-17T15:41:55.463Z,95072.03
2022-11-17T15:43:59.906Z,95075.00
2022-11-17T15:46:03.938Z,95066.44
2022-11-17T15:48:07.401Z,95066.47
2022-11-17T15:50:11.498Z,95051.53
2022-11-17T15:52:14.624Z,95051.03
2022-11-17T15:54:20.648Z,95052.91
2022-11-17T15:56:25.463Z,95045.97
2022-11-17T15:58:28.242Z,95053.69
2022-11-17T16:00:34.140Z,95056.34
2022-11-17T16:02:37.135Z,95050.47
2022-11-17T16:04:39.944Z,95056.63
2022-11-17T16:06:44.567Z,95055.28
2022-11-17T16:08:47.413Z,95050.22
2022-11-17T16:10:50.240Z,95048.63
2022-11-17T16:12:53.438Z,95045.19
2022-11-17T16:14:56.624Z,95048.13
2022-11-17T16:17:00.942Z,95046.25
2022-11-17T16:19:05.817Z,95054.25
2022-11-17T16:21:11.632Z,95056.13
2022-11-17T16:23:15.495Z,95051.88
2022-11-17T16:25:18.379Z,95043.88
2022-11-17T16:27:21.257Z,95050.78
2022-11-17T16:29:24.807Z,95048.63
2022-11-17T16:31:30.019Z,95044.09
2022-11-17T16:33:34.159Z,95044.09
2022-11-17T16:35:37.123Z,95055.28
2022-11-17T16:37:39.859Z,95050.75
2022-11-17T16:39:43.222Z,95048.88
2022-11-17T16:41:46.666Z,95047.81
2022-11-17T16:43:49.896Z,95037.94
2022-11-17T16:45:52.766Z,95052.91
2022-11-17T16:47:55.703Z,95046.75
2022-11-17T16:49:59.701Z,95049.94
2022-11-17T16:52:02.603Z,95058.75
2022-11-17T16:54:07.219Z,95071.81
2022-11-17T16:56:12.188Z,95063.00
2022-11-17T16:58:15.279Z,95068.34
2022-11-17T17:00:18.488Z,95072.91
2022-11-17T17:02:21.542Z,95066.47
2022-11-17T17:04:24.375Z,95072.34
2022-11-17T17:06:29.302Z,95065.91
2022-11-17T17:08:32.020Z,95081.94
2022-11-17T17:10:35.172Z,95079.28
2022-11-17T17:12:38.119Z,95088.59
2022-11-17T17:14:41.239Z,95091.25
2022-11-17T17:16:44.141Z,95101.69
2022-11-17T17:18:47.406Z,95104.38
2022-11-17T17:20:51.773Z,95095.28
2022-11-17T17:23:00.265Z,95106.75
2022-11-17T17:25:06.877Z,95111.28
2022-11-17T17:27:09.795Z,95113.97
2022-11-17T17:29:12.937Z,95121.19
2022-11-17T17:31:21.233Z,95126.75
2022-11-17T17:33:24.672Z,95129.44
2022-11-17T17:35:27.426Z,95136.66
2022-11-17T17:37:32.922Z,95148.13
2022-11-17T17:39:37.897Z,95137.44
2022-11-17T17:41:41.909Z,95145.72
2022-11-17T17:43:46.343Z,95144.94
2022-11-17T17:45:49.329Z,95139.06
2022-11-17T17:47:52.045Z,95131.06
2022-11-17T17:49:54.840Z,95135.59
2022-11-17T17:51:57.675Z,95135.59
2022-11-17T17:54:01.966Z,95145.50
2022-11-17T17:56:09.564Z,95139.34
2022-11-17T17:58:12.553Z,95132.69
2022-11-17T18:00:16.212Z,95132.69
2022-11-17T18:02:18.991Z,95142.31
2022-11-17T18:04:21.858Z,95146.06
2022-11-17T18:06:24.596Z,95152.75
2022-11-17T18:08:27.746Z,95157.25
2022-11-17T18:10:31.019Z,95154.06
2022-11-17T18:12:35.142Z,95186.13
2022-11-17T18:14:38.085Z,95191.44
2022-11-17T18:16:40.967Z,95194.94
2022-11-17T18:18:45.483Z,95211.50
2022-11-17T18:20:48.550Z,95225.91
2022-11-17T18:22:51.531Z,95232.31
2022-11-17T18:24:58.159Z,95241.13
2022-11-17T18:27:01.190Z,95244.31
2022-11-17T18:29:07.434Z,95241.13
2022-11-17T18:31:10.570Z,95266.22
2022-11-17T18:33:13.608Z,95282.22
2022-11-17T18:35:16.484Z,95296.09
2022-11-17T18:37:19.607Z,95289.66
2022-11-17T18:39:23.271Z,95300.59
2022-11-17T18:41:30.604Z,95296.84
2022-11-17T18:43:34.351Z,95302.16
2022-11-17T18:45:39.398Z,95311.75
2022-11-17T18:47:42.382Z,95313.31
2022-11-17T18:49:45.355Z,95320.78
2022-11-17T18:51:48.164Z,95319.94
2022-11-17T18:53:52.100Z,95320.47
2022-11-17T18:55:59.643Z,95314.88
2022-11-17T18:58:02.523Z,95314.53
2022-11-17T19:00:06.635Z,95314.97
2022-11-17T19:02:11.209Z,95310.13
2022-11-17T19:04:15.287Z,95308.25
2022-11-17T19:06:19.388Z,95301.00
2022-11-17T19:08:23.882Z,95290.84
2022-11-17T19:10:26.843Z,95291.38
2022-11-17T19:12:29.637Z,95294.03
2022-11-17T19:14:32.986Z,95297.22
2022-11-17T19:16:42.576Z,95303.63
2022-11-17T19:18:50.184Z,95306.59
2022-11-17T19:20:53.165Z,95299.38
2022-11-17T19:22:55.976Z,95300.72
2022-11-17T19:24:59.030Z,95316.44
2022-11-17T19:27:01.918Z,95304.75
2022-11-17T19:29:11.160Z,95308.75
2022-11-17T19:31:19.098Z,95306.88
2022-11-17T19:33:22.111Z,95306.13
2022-11-17T19:35:26.437Z,95305.34
2022-11-17T19:37:29.129Z,95305.06
2022-11-17T19:39:31.935Z,95306.97
2022-11-17T19:41:36.324Z,95307.53
2022-11-17T19:43:44.763Z,95301.19
2022-11-17T19:45:48.476Z,95296.94
2022-11-17T19:47:51.586Z,95300.72
2022-11-17T19:49:54.490Z,95302.84
2022-11-17T19:51:58.830Z,95305.50
2022-11-17T19:54:03.645Z,95291.44
2022-11-17T19:56:06.937Z,95297.81
2022-11-17T19:58:09.752Z,95295.44
2022-11-17T20:00:13.866Z,95296.00
2022-11-17T20:02:17.079Z,95297.59
2022-11-17T20:04:19.982Z,95293.56
2022-11-17T20:06:24.465Z,95294.09
2022-11-17T20:08:30.990Z,95299.16
2022-11-17T20:10:33.998Z,95296.00
2022-11-17T20:12:37.747Z,95289.31
2022-11-17T20:14:40.914Z,95295.19
2022-11-17T20:16:43.668Z,95296.78
2022-11-17T20:18:50.747Z,95297.59
2022-11-17T20:20:53.547Z,95288.00
2022-11-17T20:22:57.007Z,95287.47
2022-11-17T20:25:03.657Z,95288.03
2022-11-17T20:27:07.245Z,95293.88
2022-11-17T20:29:10.424Z,95288.56
2022-11-17T20:31:14.912Z,95286.97
2022-11-17T20:33:17.631Z,95286.41
2022-11-17T20:35:20.488Z,95282.69
2022-11-17T20:37:23.418Z,95286.69
2022-11-17T20:39:26.228Z,95294.94
2022-11-17T20:41:31.122Z,95298.16
2022-11-17T20:43:35.376Z,95298.41
2022-11-17T20:45:38.468Z,95298.16
2022-11-17T20:47:41.203Z,95293.88
2022-11-17T20:49:44.191Z,95294.41
2022-11-17T20:51:47.067Z,95297.09
2022-11-17T20:53:50.108Z,95305.06
2022-11-17T20:55:53.102Z,95280.81
2022-11-17T20:57:57.304Z,95292.28
2022-11-17T21:00:00.033Z,95283.25
2022-11-17T21:02:03.323Z,95285.13
2022-11-17T21:04:06.344Z,95289.38
2022-11-17T21:06:09.950Z,95283.25
2022-11-17T21:08:12.814Z,95282.44
2022-11-17T21:10:16.527Z,95276.28
2022-11-17T21:12:19.654Z,95284.56
2022-11-17T21:14:25.748Z,95270.69
2022-11-17T21:16:28.955Z,95262.16
2022-11-17T21:18:31.003Z,95264.56
2022-11-17T21:20:34.208Z,95261.09
2022-11-17T21:22:37.063Z,95256.03
2022-11-17T21:24:39.964Z,95268.28
2022-11-17T21:26:42.949Z,95254.44
2022-11-17T21:28:47.547Z,95249.66
2022-11-17T21:30:52.004Z,95279.50
2022-11-17T21:32:54.847Z,95277.09
2022-11-17T21:34:59.436Z,95276.81
2022-11-17T21:37:02.295Z,95267.22
2022-11-17T21:39:05.826Z,95271.75
2022-11-17T21:41:10.923Z,95277.91
2022-11-17T21:43:14.393Z,95278.69
2022-11-17T21:45:17.974Z,95287.75
2022-11-17T21:47:22.364Z,95280.81
2022-11-17T21:49:25.271Z,95283.50
2022-11-17T21:51:29.703Z,95278.16
2022-11-17T21:53:32.601Z,95266.44
2022-11-17T21:55:35.416Z,95254.97
2022-11-17T21:57:38.217Z,95255.78
2022-11-17T21:59:41.178Z,95256.56
2022-11-17T22:01:44.356Z,95257.63
2022-11-17T22:03:48.573Z,95274.69
2022-11-17T22:05:54.834Z,95278.41
2022-11-17T22:08:01.148Z,95284.25
2022-11-17T22:10:04.343Z,95287.72
2022-11-17T22:12:07.807Z,95292.25
2022-11-17T22:14:12.433Z,95286.66
2022-11-17T22:16:15.498Z,95286.41
2022-11-17T22:18:18.378Z,95286.41
2022-11-17T22:20:22.831Z,95281.06
2022-11-17T22:22:25.643Z,95277.34
